Sousse, Tunisia
Current Conditions -  °F | °C
As of 11:00 AM on Wednesday 26 Nov 2014 (Local Time) from DTMB Reporting Station
Few Clouds Few Clouds  
Wind Chill: 72°   Ceiling: Unl
Heat Index: 72°   Visibility: 6mi
Dew Point: 55°   Wind: 3mph
Humidity: 57%   Direction: 350°N
Pressure: 30.03"   Gusts: NA
Location:  35.82°N, 10.63°E
Report Text: DTMB 261000Z 35003KT 9999 FEW020 22/13 Q1017 NOSIG
Loading
Personal Weather Stations






























Interactive Weather Map New forecast layout! Learn more

10-Day Weather Forecast

Advertisements
Track Severe Weather on mobile